Rachel, Nevada Weather observations

Data are for observation ending at time listed.
 Day   Time    Ave.   Ave.  Ave.  Vector   Max.   Stn.    Total    Solar   Ave.  
  of    of     Air    Rel.  Wind   Wind    Wind   Baro.  Precip.   Rad.    Soil  
Year   Day     Temp.  Hum.  Speed  Dir.    Gust   Pres.                    Temp. 
2026   (PST)    F      %     mph   deg.    mph     mb.     in.     W/m2     F   
------------------------------------------------------------------------------
 122   14:50   73.2     8    9.2   160     15.1   851.2    0.00     494    68.0
 122   15:00   73.5     8    7.8   142     14.0   851.0    0.00     500    67.9
 122   15:10   73.3     8   10.2   157     19.3   850.9    0.00     458    67.8
 122   15:20   73.3     8    7.3   132     13.4   850.8    0.00     393    67.9
 122   15:30   73.0     8    3.8   106      8.2   850.7    0.00     381    67.8
 122   15:40   73.3     7    9.5   153     18.3   850.6    0.00     299    67.5
 122   15:50   72.4     7    8.2   168     15.9   850.6    0.00     222    67.7
 122   16:00   72.4     7   10.1   158     16.1   850.5    0.00     211    68.1
 122   16:10   72.3     7    9.7   176     17.2   850.4    0.00     231    68.1
 122   16:20   72.4     7   11.0   164     16.6   850.3    0.00     238    67.8
 122   16:30   72.5     7    9.8   165     14.7   850.2    0.00     247    67.8
 122   16:40   72.7     7   10.6   168     15.7   850.1    0.00     229    68.0
 122   16:50   72.2     7   11.1   165     16.0   850.1    0.00     186    67.9
 122   17:00   71.7     7    9.8   162     13.4   850.0    0.00     132    68.0
 122   17:10   71.6     7   10.4   167     14.0   849.9    0.00     105    67.9
 122   17:20   71.3     7    9.4   156     12.9   849.8    0.00      86    67.8
 122   17:30   71.0     7   10.1   156     13.8   849.7    0.00      73    67.9
 122   17:40   70.7     7    9.8   165     13.6   849.6    0.00      58    67.5
 122   17:50   70.3     7    9.5   157     12.0   849.5    0.00      45    67.6
 122   18:00   69.7     8    9.0   156     10.8   849.4    0.00      36    67.6
 122   18:10   69.0     8    8.4   156     10.7   849.3    0.00      28    67.6
 122   18:20   67.8     8    8.3   158     10.0   849.2    0.00      15    67.3
 122   18:30   66.1     9    8.6   156     10.9   849.1    0.00       7    67.4
 122   18:40   64.6     9    9.9   160     11.6   849.0    0.00       3    67.0
 122   18:50   63.3    10   10.0   164     11.8   848.9    0.00       1    67.0
 122   19:00   63.0    10   10.8   161     12.4   848.8    0.00       0    66.7
 122   19:10   61.5    10   10.0   164     12.1   848.8    0.00       0    66.6
 122   19:20   60.7    11   11.9   168     13.4   848.8    0.00       0    66.8
 122   19:30   61.4    10   11.2   167     13.7   848.7    0.00       0    66.1
 122   19:40   60.9    11   11.0   168     12.8   849.0    0.00       0    66.1
 122   19:50   60.0    11    9.0   165     11.5   849.4    0.00       0    66.1
 122   20:00   60.0    11   11.1   168     13.4   849.2    0.00       0    66.0
 122   20:10   60.4    10   12.1   171     15.9   848.8    0.00       0    65.8
 122   20:20   61.8    10   14.7   177     16.7   848.9    0.00       0    65.5
 122   20:30   61.4    10   13.9   176     16.4   849.0    0.00       0    65.2
 122   20:40   61.2    10   13.3   172     15.3   849.1    0.00       0    65.1
 122   20:50   61.9    10   15.2   174     17.9   849.1    0.00       0    64.6
 122   21:00   61.2    11   13.2   164     16.9   849.2    0.00       0    64.7
 122   21:10   60.7    11   12.4   166     17.2   849.2    0.00       0    64.4
 122   21:20   61.2    11   13.2   155     16.4   849.2    0.00       0    64.3
 122   21:30   59.7    12   13.6   161     17.1   849.1    0.00       0    64.0
 122   21:40   60.8    11   11.4   164     15.8   849.1    0.00       0    64.2
 122   21:50   59.3    12    6.3   190     11.5   849.1    0.00       0    63.9
 122   22:00   55.6    16    6.2   259     14.5   849.1    0.00       0    63.5
 122   22:10   50.4    20    5.0   254      8.3   849.4    0.00       0    63.6
 122   22:20   50.1    19    4.2   262      5.9   849.0    0.00       0    63.4
 122   22:30   50.5    18    3.3   234      5.6   848.9    0.00       0    63.3
 122   22:40   51.1    17    2.8   261      5.0   849.0    0.00       0    63.1
 122   22:50   51.3    16    2.7   179      6.9   848.9    0.00       0    63.0
 122   23:00   50.9    16    3.0   236      5.0   848.8    0.00       0    62.8
 122   23:10   50.0    17    3.5   275      6.2   848.8    0.00       0    62.6
 122   23:20   49.3    18    2.7   293      6.2   848.8    0.00       0    62.7
 122   23:30   48.1    19    0.9   161      4.7   848.9    0.00       0    62.0
 122   23:40   47.6    20    1.0   235      3.7   848.6    0.00       0    62.1
 122   23:50   46.9    22    2.0   228      3.2   848.4    0.00       0    61.9
 123    0:00   46.2    26    2.7   248      3.9   848.3    0.00       0    61.8
 123    0:10   45.9    26    2.9   228      3.9   848.3    0.00       0    61.6
 123    0:20   45.7    26    2.7   180      3.5   848.2    0.00       0    61.5
 123    0:30   44.9    24    2.1   195      3.2   848.0    0.00       0    61.2
 123    0:40   43.6    25    0.8   283      3.2   848.0    0.00       0    61.2
 123    0:50   42.2    26    0.5    15      1.6   848.3    0.00       0    60.9
 123    1:00   41.9    25    1.0   178      2.3   847.9    0.00       0    60.8
 123    1:10   42.5    26    1.8   201      3.4   847.9    0.00       0    60.7
 123    1:20   42.5    28    2.4   207      3.5   847.5    0.00       0    60.3
 123    1:30   42.1    29    2.5   184      3.3   847.3    0.00       0    60.4
 123    1:40   41.9    30    2.5   190      3.4   847.3    0.00       0    60.1
 123    1:50   40.9    28    1.6   174      2.5   847.5    0.00       0    59.7
 123    2:00   40.4    28    1.9   155      3.0   847.6    0.00       0    59.6
 123    2:10   40.0    28    1.9   178      3.1   847.6    0.00       0    59.6
 123    2:20   40.9    30    3.0   174      3.8   847.5    0.00       0    59.3
 123    2:30   40.6    30    2.8   195      3.7   847.5    0.00       0    59.1
 123    2:40   39.8    31    2.4   186      3.3   847.4    0.00       0    58.9
 123    2:50   39.7    30    1.8   187      2.8   847.4    0.00       0    58.9
 123    3:00   40.7    30    2.1   238      3.4   847.4    0.00       0    58.7
 123    3:10   39.2    31    1.1   251      3.4   847.4    0.00       0    58.5
 123    3:20   38.4    30    1.2   173      2.9   847.4    0.00       0    58.3
 123    3:30   39.0    32    1.6   195      2.5   847.3    0.00       0    58.0
 123    3:40   38.8    31    0.9   202      2.0   847.2    0.00       0    58.0
 123    3:50   38.9    32    1.1   178      1.8   847.1    0.00       0    58.0
 123    4:00   38.3    32    1.1   180      2.2   847.1    0.00       0    57.8
 123    4:10   38.2    32    0.4   136      1.3   847.0    0.00       0    57.5
 123    4:20   37.5    33    0.9   100      2.9   846.9    0.00       0    57.4
 123    4:30   35.0    34    0.7    72      1.6   847.0    0.00       0    57.4
 123    4:40   35.8    35    1.0    46      1.9   847.0    0.00       0    57.2
 123    4:50   37.0    37    0.7    13      2.2   847.0    0.00       3    56.9
 123    5:00   37.4    36    0.1    57      1.4   846.9    0.00       8    56.9
 123    5:10   37.7    34    0.5    69      1.7   846.8    0.00      23    56.7
 123    5:20   38.3    34    2.3   118      3.3   847.0    0.00      33    56.6
 123    5:30   38.8    34    3.9   112      4.8   847.1    0.00      53    56.5
 123    5:40   40.9    33    2.0   117      3.5   847.3    0.00      69    56.4
 123    5:50   42.2    32    0.6   144      2.0   847.5    0.00      77    56.2
 123    6:00   42.7    31    0.5   321      2.2   847.7    0.00      89    56.1
 123    6:10   41.4    31    1.9   343      3.2   847.9    0.00     114    56.2
 123    6:20   42.9    30    0.5   293      2.7   848.0    0.00     204    56.1
 123    6:30   46.4    28    0.4   344      1.4   848.2    0.00     238    55.8
 123    6:40   47.2    28    0.9   310      2.3   848.5    0.00     247    56.1
 123    6:50   49.5    27    0.6   265      2.6   848.8    0.00     305    56.0
 123    7:00   51.9    25    1.2   198      2.9   849.0    0.00     254    56.2
 123    7:10   51.4    25    1.8   228      3.2   849.2    0.00     349    56.4
 123    7:20   54.1    23    1.4   254      2.6   849.4    0.00     303    56.9
 123    7:30   55.4    22    1.4   281      3.0   849.1    0.00     385    56.7
 123    7:40   56.2    20    1.0   319      3.3   849.4    0.00     429    57.0
 123    7:50   59.1    17    0.7   268      2.8   849.3    0.00     465    56.9
 123    8:00   60.2    16    1.1   300      3.1   849.4    0.00     487    57.5
 123    8:10   61.7    15    1.5   258      4.2   849.6    0.00     515    57.9
 123    8:20   62.4    15    1.9   272      4.0   849.8    0.00     543    58.2
 123    8:30   62.3    16    2.4   354      6.2   849.8    0.00     523    58.6
 123    8:40   64.1    15    1.8   321      3.9   849.9    0.00     550    59.3
 123    8:50   64.9    14    1.9   348      4.0   850.0    0.00     588    59.7
 123    9:00   66.7    13    1.9   357      3.9   850.2    0.00     610    60.2
 123    9:10   68.0    12    2.1    54      5.0   850.1    0.00     627    60.3
 123    9:20   69.0    12    5.2   360      7.5   849.9    0.00     645    60.9
 123    9:30   70.3    11    2.9   327      7.1   850.0    0.00     663    61.3
 123    9:40   72.1    10    5.8   208     13.5   849.8    0.00     678    61.8
 123    9:50   72.3    10   10.5   160     18.4   849.9    0.00     696    62.2
 123   10:00   72.4    10   12.3   162     17.7   849.8    0.00     716    63.0
 123   10:10   72.7    10   10.2   141     17.2   849.7    0.00     742    63.6
 123   10:20   73.8     9   13.2   154     19.5   849.6    0.00     791    64.0
 123   10:30   74.6     9   16.5   166     23.4   849.5    0.00     806    64.8
 123   10:40   74.2     9   20.8   166     29.9   849.4    0.00     486    65.1
 123   10:50   73.2    10   15.4   171     24.3   849.3    0.00     470    66.0
 123   11:00   73.8    10   17.3   175     27.4   849.1    0.00     619    66.3
 123   11:10   74.4    10   14.9   178     23.5   849.0    0.00     785    66.7
 123   11:20   74.5    10   15.8   201     24.4   848.9    0.00     479    67.6
 123   11:30   73.8    10   14.1   176     24.8   848.9    0.00     386    67.7
 123   11:40   73.1    11   11.8   142     32.4   848.7    0.00     355    68.0
 123   11:50   73.2    11   17.0   192     34.0   848.5    0.00     290    68.3
 123   12:00   73.3    11   13.4   202     29.8   848.4    0.00     629    69.0
 123   12:10   74.7    11    5.4   199     13.2   848.1    0.00     879    68.9
 123   12:20   75.5    10   15.7   176     23.4   848.0    0.00     708    69.0
 123   12:30   75.5    10   15.5   178     30.5   847.9    0.00     797    69.2
 123   12:40   75.7    10   19.9   182     30.1   847.8    0.00     585    69.4
 123   12:50   75.5    10   15.8   193     25.6   847.8    0.00     548    69.3
 123   13:00   74.8    11   16.8   209     27.0   847.6    0.00     343    69.4
 123   13:10   73.9    11   14.9   158     26.0   847.5    0.00     238    69.4
 123   13:20   73.7    11   12.9   146     24.0   847.3    0.00     247    69.6
 123   13:30   73.7    11   21.7   179     36.7   847.0    0.00     242    69.6
 123   13:40   72.8    12   16.2   200     27.2   847.1    0.00     168    69.7
 123   13:50   72.7    13   20.1   183     29.2   846.9    0.00     206    69.5
 123   14:00   72.9    13   18.0   193     28.1   846.8    0.00     294    69.9
 123   14:10   72.6    13   20.4   181     27.1   846.7    0.00     278    69.6
 123   14:20   72.0    14   20.0   178     27.6   846.6    0.00     345    69.8
 123   14:30   72.3    14   18.5   188     27.2   846.5    0.00     285    69.7
 123   14:40   72.4    14   15.8   192     25.3   846.3    0.00     480    69.7

Return to St. George, Utah graphs page.


Western Regional Climate Center,wrcc@dri.edu